Bo Airport

Jump to: basic info | weather | comments

Related pages: nearby airports | nearby navaids | notams | map

Basic information (top)

Codes: KBS GFBO
Location: lon 7.944400, lat -11.761000, elev 328 ft / 100 m msl
Status: medium_airport
Scheduled airline service: yes
Links: Wikipedia Mobile

Weather (top)

Current conditions for Lungi International Airport 94nm (175km) WNW (rec'd 2014/12/22 17:00Z):

GFLL 221700Z 27006KT 9000 HZ NSC 30/22 Q1009

Airport forecast for Lungi International Airport 94nm (175km) WNW (rec'd 2014/12/22 18:51Z):

TAF TAF GFLL 221600Z 2218/2324 27007KT 8000 HZ FEW015 
      TEMPO 2116/2223 30008KT 7000 HZ FEW014 PROB30 
      TEMPO 2300/2306 06004KT 4000 BR SCT013 
     FM230700 09003KT 5000 BR SCTO14 
      TEMPO 2310/2317 30006KT 8000 HZ FEW015

Latest comments (top)

No comments yet for Bo Airport

More... (top)

See also NOTAMs and nearby airports and navaids, or visit the Bo Airport page at the main OurAirports website..